• Join FlightAware (Why Join?)
  • Login
  • US Flag 
12:43AM EDT


 

Airport Tracker/Info


-or-


 

Live Flight TrackerFlight Track Log ✈ RPA3242 ✈ 18-Mar-2014 ✈ KPHL - KALB

Flight Track Log - Related Links

Times and Time Zones

All times are in EDT time to prevent confusion due to time zone crossing. See the RPA3242 flight status page for this flight to view local times or setup timezone preferences in your user account.

Time Position Orientation Groundspeed Altitude Reporting Facility
EDT Latitude Longitude Course Direction KTS MPH feet Rate Location/Type
09:21PM 39.8833 -75.2167 37° Northeast 135 155 1,000  Level Philadelphia TRACON
09:22PM 39.8667 -75.1833 123° Southeast 157 181 2,500 2,100 Climbing Philadelphia TRACON
09:23PM 39.8167 -74.8771 90° East  Level FlightAware Approximate
09:24PM 39.7947 -74.7567 105° East  Level FlightAware Approximate
09:24PM 39.8486 -75.0431 99° East 233 268 6,400  Level New York Center
09:25PM 39.8233 -74.6601 37° Northeast  Level FlightAware Approximate
09:25PM 39.8314 -74.9392 102° East 271 312 9,200  Level New York Center
09:26PM 39.8909 -74.5925 37° Northeast  Level FlightAware Approximate
09:26PM 39.8119 -74.8381 104° East 301 346 10,900  Level New York Center
09:27PM 39.8103 -74.7083 91° East 327 376 13,300 2,580 Climbing New York Center
09:28PM 39.9031 -74.6133 38° Northeast 308 354 16,100 2,280 Climbing New York Center
09:29PM 39.9850 -74.5283 38° Northeast 346 398 17,900 1,920 Climbing New York Center
09:30PM 40.0731 -74.4411 37° Northeast 353 406 20,000 1,920 Climbing New York Center
09:31PM 40.1636 -74.3508 37° Northeast 381 438 21,800 1,800 Climbing New York Center
09:32PM 40.2597 -74.2658 34° Northeast 401 461 23,600 1,080 Climbing New York Center
09:33PM 40.3600 -74.1919 29° Northeast 413 475 24,000 180 Climbing New York Center
09:34PM 40.4622 -74.1125 31° Northeast 419 482 24,000  Level New York Center
09:36PM 40.6844 -73.9478 29° Northeast 423 487 24,000  Level Boston Center
09:37PM 40.7844 -73.8675 31° Northeast 420 483 24,000  Level Boston Center
09:38PM 40.8744 -73.7633 41° Northeast 428 493 24,000 -300 Level Boston Center
09:39PM 40.9675 -73.6694 37° Northeast 427 491 23,400 -540 Descending Boston Center
09:40PM 41.0786 -73.6586 North 409 471 23,000 -600 Descending Boston Center
09:41PM 41.1903 -73.6664 357° North 402 463 22,200 -960 Descending Boston Center
09:42PM 41.3006 -73.6772 356° North 397 457 21,100 -1,140 Descending Boston Center
09:43PM 41.4078 -73.6861 356° North 390 449 20,000 -600 Descending Boston Center
09:44PM 41.5158 -73.6939 357° North 388 447 20,000  Level Boston Center
09:45PM 41.6233 -73.7042 356° North 388 447 20,000  Level Boston Center
09:46PM 41.7289 -73.7133 356° North 381 438 20,000 -720 Level Boston Center
09:47PM 41.8528 -73.7236 356° North 381 438 18,600 -1,740 Descending Boston Center
09:48PM 41.9758 -73.7342 356° North 375 432 16,200 -1,920 Descending Boston Center
09:49PM 42.0578 -73.7419 356° North 364 419 14,700 -1,920 Descending Boston Center
09:49PM 42.0750 -73.7442 355° North 359 413 14,300 -2,040 Descending Boston Center
09:50PM 42.1589 -73.7503 357° North 355 409 12,700 -1,980 Descending Boston Center
09:50PM 42.1806 -73.7536 353° North 352 405 12,300 -1,800 Descending Boston Center
09:51PM 42.2542 -73.7583 357° North 345 397 10,900 -1,800 Descending Boston Center
09:51PM 42.2736 -73.7614 353° North 340 391 10,500 -1,680 Descending Boston Center
09:52PM 42.3478 -73.7667 357° North 312 359 9,200 -1,500 Descending Boston Center
09:52PM 42.3581 -73.7694 349° North 288 331 9,000 -1,620 Descending Boston Center
09:53PM 42.4233 -73.7778 355° North 276 318 7,600 -1,800 Descending Boston Center
09:53PM 42.4333 -73.7803 350° North 265 305 7,200 -2,100 Descending Boston Center
09:54PM 42.5067 -73.7906 354° North 262 302 5,200 -1,800 Descending Boston Center
09:55PM 42.5611 -73.7975 355° North 238 274 3,900 -1,380 Descending Boston Center
09:55PM 42.5697 -73.7972 North 224 258 3,800 -1,200 Descending Boston Center
09:56PM 42.6206 -73.7992 358° North 216 249 2,700 -1,320 Descending Boston Center
09:56PM 42.6275 -73.7992 360° North 205 236 2,500 -1,140 Descending Boston Center
09:57PM 42.6725 -73.8014 358° North 182 209 1,600 -1,020 Descending Boston Center
09:57PM 42.6764 -73.8011 North 157 181 1,500 -840 Descending Boston Center
09:58PM 42.7117 -73.8031 358° North 150 173 800 -840 Descending Boston Center
09:58PM 42.7150 -73.8025 North 131 151 700 -600 Descending Boston Center
09:59PM 42.7467 -73.8042 358° North 133 153 200 -600 Descending Boston Center